Ocean Stalwart — YJRG8 — position and weather

sailwx.info

Track history (hours):
 
Tides and Currents Weather Stations Pressure Air Temp Water Temp Dewpoint Dewpoint Depression Visibility Wind Speed Wind Dir Waves Ship Positions

Ocean Stalwart

Last reported at 2018-Apr-17 16:40 UTC. Time now 2018-Apr-23 19:36 UTC.
Position S 22°59' W 043°07'.

Length 70 m; draft 6 m.

Type: Ship. MMSI: 576785000.

Date/timePositionNaut miles runAvg speedWind from/ knotsBaromVisibWave heightAir tempDewpointWater temp
2018-Apr-17 16:40S 22°59' W 043°07'6 3.2
2018-Apr-17 14:47S 22°53' W 043°07'0 0.0
2018-Apr-17 14:23S 22°53' W 043°07'0 0.0
2018-Apr-17 13:59S 22°53' W 043°07'0 0.0
2018-Apr-17 13:29S 22°53' W 043°07'0 0.0
2018-Apr-17 12:59S 22°53' W 043°07'0 0.0
2018-Apr-17 12:26S 22°53' W 043°07'0 0.0
2018-Apr-17 11:59S 22°53' W 043°07'0 0.0
2018-Apr-17 11:29S 22°53' W 043°07'0 0.0
2018-Apr-16 17:26S 22°53' W 043°07'0 0.0
2018-Apr-16 13:20S 22°53' W 043°07'0 0.0
2018-Apr-16 12:59S 22°53' W 043°07'0 0.0
2018-Apr-16 11:35S 22°53' W 043°07'0 0.1
2018-Apr-16 11:29S 22°53' W 043°07'0 0.0
2018-Apr-16 10:59S 22°53' W 043°07'0 0.0
2018-Apr-16 10:29S 22°53' W 043°07'0 0.0
2018-Apr-16 09:59S 22°53' W 043°07'0 0.0
2018-Apr-16 09:29S 22°53' W 043°07'0 0.0
2018-Apr-16 08:59S 22°53' W 043°07'0 0.0
2018-Apr-16 08:30S 22°53' W 043°07'1 1.6
2018-Apr-16 08:00S 22°53' W 043°08'3 5.6
2018-Apr-16 07:30S 22°55' W 043°09'4 7.5
2018-Apr-16 07:00S 22°59' W 043°07'4 8.4
2018-Apr-16 06:30S 23°01' W 043°03'4 8.1
2018-Apr-16 06:00S 23°02' W 042°59'4 8.3
2018-Apr-16 05:28S 23°03' W 042°54'22 7.7
2018-Apr-16 02:35S 23°03' W 042°30'  
2018-Apr-12 03:00S 23°03' W 042°47'4 7.7
2018-Apr-12 02:30S 23°03' W 042°51'4 7.6
2018-Apr-12 02:00S 23°03' W 042°56'4 7.6
2018-Apr-12 01:30S 23°03' W 042°60'4 8.2
2018-Apr-12 01:00S 23°01' W 043°04'4 7.7
2018-Apr-12 00:30S 22°59' W 043°07'3 7.0
2018-Apr-12 00:00S 22°56' W 043°08'3 5.6
2018-Apr-11 23:30S 22°53' W 043°09'1 2.6
2018-Apr-11 22:58S 22°53' W 043°07'0 0.0
2018-Apr-11 22:28S 22°53' W 043°07'0 0.0
2018-Apr-11 21:52S 22°53' W 043°07'0 0.0
2018-Apr-11 21:28S 22°53' W 043°07'0 0.0
2018-Apr-11 20:49S 22°53' W 043°07'0 0.0
2018-Apr-11 20:28S 22°53' W 043°07'0 0.0
2018-Apr-11 19:58S 22°53' W 043°07'0 0.0
2018-Apr-11 19:28S 22°53' W 043°07'0 0.0
2018-Apr-11 18:55S 22°53' W 043°07'0 0.0
2018-Apr-11 18:28S 22°53' W 043°07'0 0.0
2018-Apr-11 17:58S 22°53' W 043°07'0 0.0
2018-Apr-11 17:25S 22°53' W 043°07'0 0.0
2018-Apr-11 16:52S 22°53' W 043°07'0 0.0
2018-Apr-11 16:28S 22°53' W 043°07'0 0.0
2018-Apr-11 15:58S 22°53' W 043°07'0 0.0
2018-Apr-11 15:28S 22°53' W 043°07'0 0.0
2018-Apr-11 14:58S 22°53' W 043°07'0 0.0
2018-Apr-11 14:28S 22°53' W 043°07'0 0.0
2018-Apr-11 13:58S 22°53' W 043°07'0 0.0
2018-Apr-11 13:28S 22°53' W 043°07'0 0.0
2018-Apr-11 12:58S 22°53' W 043°07'0 0.0
2018-Apr-11 12:28S 22°53' W 043°07'0 0.0
2018-Apr-11 11:58S 22°53' W 043°07'0 0.0
2018-Apr-11 11:28S 22°53' W 043°07'0 0.1
2018-Apr-11 10:58S 22°53' W 043°07'1 1.2
2018-Apr-11 10:28S 22°53' W 043°08'2 3.3
2018-Apr-11 10:00S 22°52' W 043°09'1 2.5
2018-Apr-11 09:26S 22°51' W 043°08'0 0.0
2018-Apr-11 08:59S 22°51' W 043°08'0 0.0
2018-Apr-11 08:29S 22°51' W 043°08'0 0.0
2018-Apr-11 07:59S 22°51' W 043°08'0 0.0
2018-Apr-11 07:29S 22°51' W 043°08'0 0.0
2018-Apr-11 06:59S 22°51' W 043°08'0 0.0
2018-Apr-11 06:29S 22°51' W 043°08'0 0.0
2018-Apr-11 05:59S 22°51' W 043°08'0 0.0
2018-Apr-11 05:29S 22°51' W 043°08'0 0.0
2018-Apr-11 04:59S 22°51' W 043°08'0 0.0
2018-Apr-11 04:29S 22°51' W 043°08'0 0.0
2018-Apr-11 03:59S 22°51' W 043°08'0 0.0
2018-Apr-11 03:29S 22°51' W 043°08'0 0.0
2018-Apr-11 02:59S 22°51' W 043°08'0 0.0
2018-Apr-11 02:29S 22°51' W 043°08'0 0.0
2018-Apr-11 01:59S 22°51' W 043°08'0 0.0
2018-Apr-11 01:29S 22°51' W 043°08'0 0.0
2018-Apr-11 00:59S 22°51' W 043°08'0 0.0
2018-Apr-11 00:29S 22°51' W 043°08'0 0.0
2018-Apr-10 23:56S 22°51' W 043°08'0 0.0
2018-Apr-10 23:29S 22°51' W 043°08'0 0.0
2018-Apr-10 22:59S 22°51' W 043°08'0 0.0
2018-Apr-10 22:29S 22°51' W 043°08'0 0.0
2018-Apr-10 21:59S 22°51' W 043°08'0 0.0
2018-Apr-10 21:29S 22°51' W 043°08'0 0.0
2018-Apr-10 20:59S 22°51' W 043°08'0 0.0
2018-Apr-10 20:29S 22°51' W 043°08'1 2.8
2018-Apr-10 20:00S 22°52' W 043°09'3 6.0
2018-Apr-10 19:31S 22°53' W 043°12'1 1.8
2018-Apr-10 19:00S 22°53' W 043°13'0 0.0
2018-Apr-10 18:30S 22°53' W 043°13'0 0.0
2018-Apr-10 18:00S 22°53' W 043°13'0 0.0
2018-Apr-10 17:30S 22°53' W 043°13'0 0.0
2018-Apr-10 17:00S 22°53' W 043°13'0 0.0
2018-Apr-10 16:30S 22°53' W 043°13'0 0.0
2018-Apr-10 16:00S 22°53' W 043°13'0 0.0
2018-Apr-10 15:30S 22°53' W 043°13'1 1.2
2018-Apr-10 15:01S 22°54' W 043°12'3 5.5
2018-Apr-10 14:30S 22°53' W 043°09'2 4.2
2018-Apr-10 14:01S 22°51' W 043°08'1 1.0
2018-Apr-10 13:30S 22°51' W 043°08'0 0.0
2018-Apr-10 13:00S 22°51' W 043°08'0 0.0
2018-Apr-10 12:25S 22°51' W 043°08'0 0.0
2018-Apr-10 11:58S 22°51' W 043°08'0 0.0
2018-Apr-10 11:28S 22°51' W 043°08'0 0.0
2018-Apr-10 10:58S 22°51' W 043°08'0 0.0
2018-Apr-10 10:25S 22°51' W 043°08'0 0.0
2018-Apr-10 09:58S 22°51' W 043°08'0 0.0
2018-Apr-10 09:28S 22°51' W 043°08'0 0.0
2018-Apr-10 08:58S 22°51' W 043°08'0 0.0
2018-Apr-10 08:31S 22°51' W 043°08'0 0.0
2018-Apr-10 07:58S 22°51' W 043°08'0 0.0
2018-Apr-10 07:25S 22°51' W 043°08'0 0.0
2018-Apr-10 06:58S 22°51' W 043°08'0 0.0
2018-Apr-10 06:30S 22°51' W 043°08'0 0.0
2018-Apr-10 06:01S 22°51' W 043°08'0 0.0
2018-Apr-10 05:31S 22°51' W 043°08'0 0.0
2018-Apr-10 05:00S 22°51' W 043°08'0 0.0
2018-Apr-10 04:31S 22°51' W 043°08'0 0.0
2018-Apr-10 03:48S 22°51' W 043°08'0 0.0
2018-Apr-10 03:30S 22°51' W 043°08'0 0.0
2018-Apr-10 03:00S 22°51' W 043°08'0 0.0
2018-Apr-10 02:31S 22°51' W 043°08'0 0.0
2018-Apr-10 02:01S 22°51' W 043°08'0 0.0
2018-Apr-10 01:27S 22°51' W 043°08'0 0.0
2018-Apr-10 00:58S 22°51' W 043°08'0 0.0
2018-Apr-10 00:31S 22°51' W 043°08'0 0.0
2018-Apr-10 00:01S 22°51' W 043°08'0 0.0
2018-Apr-09 23:27S 22°51' W 043°08'2 4.2
2018-Apr-09 23:00S 22°52' W 043°09'2 3.9
2018-Apr-09 22:29S 22°53' W 043°07'0 0.4
2018-Apr-09 21:59S 22°53' W 043°07'0 0.0
2018-Apr-09 21:29S 22°53' W 043°07'0 0.0
2018-Apr-09 20:59S 22°53' W 043°07'0 0.0
2018-Apr-09 20:29S 22°53' W 043°07'0 0.0
2018-Apr-09 19:59S 22°53' W 043°07'0 0.0
2018-Apr-09 19:29S 22°53' W 043°07'0 0.0
2018-Apr-09 18:59S 22°53' W 043°07'0 0.1
2018-Apr-09 18:30S 22°53' W 043°07'0 0.4
2018-Apr-09 18:01S 22°53' W 043°07'2 3.9
2018-Apr-09 17:31S 22°54' W 043°09'4 8.4
2018-Apr-09 17:00S 22°58' W 043°09'4 9.1
2018-Apr-09 16:31S 23°02' W 043°10'5 8.8
2018-Apr-09 15:54S 23°07' W 043°13'4 9.1
2018-Apr-09 15:29S 23°10' W 043°15'4 9.4
2018-Apr-09 15:01S 23°14' W 043°18'5 9.4
2018-Apr-09 14:27S 23°18' W 043°21'4 9.2
2018-Apr-09 14:00S 23°21' W 043°23'  
Track history (hours):
 
Tides and Currents Weather Stations Pressure Air Temp Water Temp Dewpoint Dewpoint Depression Visibility Wind Speed Wind Dir Waves Ship Positions

Ocean Stalwart

Last reported at 2018-Apr-17 16:40 UTC. Time now 2018-Apr-23 19:36 UTC.
Position S 22°59' W 043°07'.

Length 70 m; draft 6 m.

Type: Ship. MMSI: 576785000.

Date/timePositionNaut miles runAvg speedWind from/ knotsBaromVisibWave heightAir tempDewpointWater temp
2018-Apr-17 16:40S 22°59' W 043°07'6 3.2
2018-Apr-17 14:47S 22°53' W 043°07'0 0.0
2018-Apr-17 14:23S 22°53' W 043°07'0 0.0
2018-Apr-17 13:59S 22°53' W 043°07'0 0.0
2018-Apr-17 13:29S 22°53' W 043°07'0 0.0
2018-Apr-17 12:59S 22°53' W 043°07'0 0.0
2018-Apr-17 12:26S 22°53' W 043°07'0 0.0
2018-Apr-17 11:59S 22°53' W 043°07'0 0.0
2018-Apr-17 11:29S 22°53' W 043°07'0 0.0
2018-Apr-16 17:26S 22°53' W 043°07'0 0.0
2018-Apr-16 13:20S 22°53' W 043°07'0 0.0
2018-Apr-16 12:59S 22°53' W 043°07'0 0.0
2018-Apr-16 11:35S 22°53' W 043°07'0 0.1
2018-Apr-16 11:29S 22°53' W 043°07'0 0.0
2018-Apr-16 10:59S 22°53' W 043°07'0 0.0
2018-Apr-16 10:29S 22°53' W 043°07'0 0.0
2018-Apr-16 09:59S 22°53' W 043°07'0 0.0
2018-Apr-16 09:29S 22°53' W 043°07'0 0.0
2018-Apr-16 08:59S 22°53' W 043°07'0 0.0
2018-Apr-16 08:30S 22°53' W 043°07'1 1.6
2018-Apr-16 08:00S 22°53' W 043°08'3 5.6
2018-Apr-16 07:30S 22°55' W 043°09'4 7.5
2018-Apr-16 07:00S 22°59' W 043°07'4 8.4
2018-Apr-16 06:30S 23°01' W 043°03'4 8.1
2018-Apr-16 06:00S 23°02' W 042°59'4 8.3
2018-Apr-16 05:28S 23°03' W 042°54'22 7.7
2018-Apr-16 02:35S 23°03' W 042°30'  
2018-Apr-12 03:00S 23°03' W 042°47'4 7.7
2018-Apr-12 02:30S 23°03' W 042°51'4 7.6
2018-Apr-12 02:00S 23°03' W 042°56'4 7.6
2018-Apr-12 01:30S 23°03' W 042°60'4 8.2
2018-Apr-12 01:00S 23°01' W 043°04'4 7.7
2018-Apr-12 00:30S 22°59' W 043°07'3 7.0
2018-Apr-12 00:00S 22°56' W 043°08'3 5.6
2018-Apr-11 23:30S 22°53' W 043°09'1 2.6
2018-Apr-11 22:58S 22°53' W 043°07'0 0.0
2018-Apr-11 22:28S 22°53' W 043°07'0 0.0
2018-Apr-11 21:52S 22°53' W 043°07'0 0.0
2018-Apr-11 21:28S 22°53' W 043°07'0 0.0
2018-Apr-11 20:49S 22°53' W 043°07'0 0.0
2018-Apr-11 20:28S 22°53' W 043°07'0 0.0
2018-Apr-11 19:58S 22°53' W 043°07'0 0.0
2018-Apr-11 19:28S 22°53' W 043°07'0 0.0
2018-Apr-11 18:55S 22°53' W 043°07'0 0.0
2018-Apr-11 18:28S 22°53' W 043°07'0 0.0
2018-Apr-11 17:58S 22°53' W 043°07'0 0.0
2018-Apr-11 17:25S 22°53' W 043°07'0 0.0
2018-Apr-11 16:52S 22°53' W 043°07'0 0.0
2018-Apr-11 16:28S 22°53' W 043°07'0 0.0
2018-Apr-11 15:58S 22°53' W 043°07'0 0.0
2018-Apr-11 15:28S 22°53' W 043°07'0 0.0
2018-Apr-11 14:58S 22°53' W 043°07'0 0.0
2018-Apr-11 14:28S 22°53' W 043°07'0 0.0
2018-Apr-11 13:58S 22°53' W 043°07'0 0.0
2018-Apr-11 13:28S 22°53' W 043°07'0 0.0
2018-Apr-11 12:58S 22°53' W 043°07'0 0.0
2018-Apr-11 12:28S 22°53' W 043°07'0 0.0
2018-Apr-11 11:58S 22°53' W 043°07'0 0.0
2018-Apr-11 11:28S 22°53' W 043°07'0 0.1
2018-Apr-11 10:58S 22°53' W 043°07'1 1.2
2018-Apr-11 10:28S 22°53' W 043°08'2 3.3
2018-Apr-11 10:00S 22°52' W 043°09'1 2.5
2018-Apr-11 09:26S 22°51' W 043°08'0 0.0
2018-Apr-11 08:59S 22°51' W 043°08'0 0.0
2018-Apr-11 08:29S 22°51' W 043°08'0 0.0
2018-Apr-11 07:59S 22°51' W 043°08'0 0.0
2018-Apr-11 07:29S 22°51' W 043°08'0 0.0
2018-Apr-11 06:59S 22°51' W 043°08'0 0.0
2018-Apr-11 06:29S 22°51' W 043°08'0 0.0
2018-Apr-11 05:59S 22°51' W 043°08'0 0.0
2018-Apr-11 05:29S 22°51' W 043°08'0 0.0
2018-Apr-11 04:59S 22°51' W 043°08'0 0.0
2018-Apr-11 04:29S 22°51' W 043°08'0 0.0
2018-Apr-11 03:59S 22°51' W 043°08'0 0.0
2018-Apr-11 03:29S 22°51' W 043°08'0 0.0
2018-Apr-11 02:59S 22°51' W 043°08'0 0.0
2018-Apr-11 02:29S 22°51' W 043°08'0 0.0
2018-Apr-11 01:59S 22°51' W 043°08'0 0.0
2018-Apr-11 01:29S 22°51' W 043°08'0 0.0
2018-Apr-11 00:59S 22°51' W 043°08'0 0.0
2018-Apr-11 00:29S 22°51' W 043°08'0 0.0
2018-Apr-10 23:56S 22°51' W 043°08'0 0.0
2018-Apr-10 23:29S 22°51' W 043°08'0 0.0
2018-Apr-10 22:59S 22°51' W 043°08'0 0.0
2018-Apr-10 22:29S 22°51' W 043°08'0 0.0
2018-Apr-10 21:59S 22°51' W 043°08'0 0.0
2018-Apr-10 21:29S 22°51' W 043°08'0 0.0
2018-Apr-10 20:59S 22°51' W 043°08'0 0.0
2018-Apr-10 20:29S 22°51' W 043°08'1 2.8
2018-Apr-10 20:00S 22°52' W 043°09'3 6.0
2018-Apr-10 19:31S 22°53' W 043°12'1 1.8
2018-Apr-10 19:00S 22°53' W 043°13'0 0.0
2018-Apr-10 18:30S 22°53' W 043°13'0 0.0
2018-Apr-10 18:00S 22°53' W 043°13'0 0.0
2018-Apr-10 17:30S 22°53' W 043°13'0 0.0
2018-Apr-10 17:00S 22°53' W 043°13'0 0.0
2018-Apr-10 16:30S 22°53' W 043°13'0 0.0
2018-Apr-10 16:00S 22°53' W 043°13'0 0.0
2018-Apr-10 15:30S 22°53' W 043°13'1 1.2
2018-Apr-10 15:01S 22°54' W 043°12'3 5.5
2018-Apr-10 14:30S 22°53' W 043°09'2 4.2
2018-Apr-10 14:01S 22°51' W 043°08'1 1.0
2018-Apr-10 13:30S 22°51' W 043°08'0 0.0
2018-Apr-10 13:00S 22°51' W 043°08'0 0.0
2018-Apr-10 12:25S 22°51' W 043°08'0 0.0
2018-Apr-10 11:58S 22°51' W 043°08'0 0.0
2018-Apr-10 11:28S 22°51' W 043°08'0 0.0
2018-Apr-10 10:58S 22°51' W 043°08'0 0.0
2018-Apr-10 10:25S 22°51' W 043°08'0 0.0
2018-Apr-10 09:58S 22°51' W 043°08'0 0.0
2018-Apr-10 09:28S 22°51' W 043°08'0 0.0
2018-Apr-10 08:58S 22°51' W 043°08'0 0.0
2018-Apr-10 08:31S 22°51' W 043°08'0 0.0
2018-Apr-10 07:58S 22°51' W 043°08'0 0.0
2018-Apr-10 07:25S 22°51' W 043°08'0 0.0
2018-Apr-10 06:58S 22°51' W 043°08'0 0.0
2018-Apr-10 06:30S 22°51' W 043°08'0 0.0
2018-Apr-10 06:01S 22°51' W 043°08'0 0.0
2018-Apr-10 05:31S 22°51' W 043°08'0 0.0
2018-Apr-10 05:00S 22°51' W 043°08'0 0.0
2018-Apr-10 04:31S 22°51' W 043°08'0 0.0
2018-Apr-10 03:48S 22°51' W 043°08'0 0.0
2018-Apr-10 03:30S 22°51' W 043°08'0 0.0
2018-Apr-10 03:00S 22°51' W 043°08'0 0.0
2018-Apr-10 02:31S 22°51' W 043°08'0 0.0
2018-Apr-10 02:01S 22°51' W 043°08'0 0.0
2018-Apr-10 01:27S 22°51' W 043°08'0 0.0
2018-Apr-10 00:58S 22°51' W 043°08'0 0.0
2018-Apr-10 00:31S 22°51' W 043°08'0 0.0
2018-Apr-10 00:01S 22°51' W 043°08'0 0.0
2018-Apr-09 23:27S 22°51' W 043°08'2 4.2
2018-Apr-09 23:00S 22°52' W 043°09'2 3.9
2018-Apr-09 22:29S 22°53' W 043°07'0 0.4
2018-Apr-09 21:59S 22°53' W 043°07'0 0.0
2018-Apr-09 21:29S 22°53' W 043°07'0 0.0
2018-Apr-09 20:59S 22°53' W 043°07'0 0.0
2018-Apr-09 20:29S 22°53' W 043°07'0 0.0
2018-Apr-09 19:59S 22°53' W 043°07'0 0.0
2018-Apr-09 19:29S 22°53' W 043°07'0 0.0
2018-Apr-09 18:59S 22°53' W 043°07'0 0.1
2018-Apr-09 18:30S 22°53' W 043°07'0 0.4
2018-Apr-09 18:01S 22°53' W 043°07'2 3.9
2018-Apr-09 17:31S 22°54' W 043°09'4 8.4
2018-Apr-09 17:00S 22°58' W 043°09'4 9.1
2018-Apr-09 16:31S 23°02' W 043°10'5 8.8
2018-Apr-09 15:54S 23°07' W 043°13'4 9.1
2018-Apr-09 15:29S 23°10' W 043°15'4 9.4
2018-Apr-09 15:01S 23°14' W 043°18'5 9.4
2018-Apr-09 14:27S 23°18' W 043°21'4 9.2
2018-Apr-09 14:00S 23°21' W 043°23'  

Dump ship's entire track history